Time;durP1;ratioP1;P1;durP2;ratioP2;P2;SDS_P1;SDS_P2;PMS_P1;PMS_P2;Temp;Humidity;BMP_temperature;BMP_pressure;BME280_temperature;BME280_humidity;BME280_pressure;Samples;Min_cycle;Max_cycle;Signal;HPM_P1;HPM_P2
2022/01/25 00:08:49;;;;;;;18.40;12.37;;;4.30;99.90;;;;;;5035490;28;20174;-92
2022/01/25 00:25:43;;;;;;;16.80;12.60;;;4.30;99.90;;;;;;5035331;28;20172;-92
2022/01/25 00:28:18;;;;;;;18.90;13.10;;;4.30;99.90;;;;;;5034677;28;20211;-91
2022/01/25 00:30:58;;;;;;;15.57;13.53;;;4.30;99.90;;;;;;5034450;28;20204;-92
2022/01/25 00:33:24;;;;;;;18.53;14.30;;;4.30;99.90;;;;;;5033464;28;20196;-92
2022/01/25 00:35:50;;;;;;;19.13;14.07;;;4.30;99.90;;;;;;5033644;28;20180;-92
2022/01/25 00:38:15;;;;;;;16.33;12.60;;;4.30;99.90;;;;;;5034948;28;20237;-91
2022/01/25 00:40:41;;;;;;;18.10;14.33;;;4.30;99.90;;;;;;5033746;28;20183;-92
2022/01/25 00:43:07;;;;;;;14.60;13.03;;;4.30;99.90;;;;;;5033705;28;20220;-92
2022/01/25 00:45:32;;;;;;;16.47;13.07;;;4.70;99.90;;;;;;5033643;28;20172;-92
2022/01/25 00:48:02;;;;;;;17.00;13.47;;;4.30;99.90;;;;;;5033559;28;20176;-92
2022/01/25 00:50:31;;;;;;;16.77;11.80;;;4.30;99.90;;;;;;5034781;28;20204;-92
2022/01/25 00:55:23;;;;;;;18.50;14.50;;;4.30;99.90;;;;;;5034938;28;20624;-91
2022/01/25 00:57:48;;;;;;;19.70;14.57;;;4.30;99.90;;;;;;5033692;28;20172;-92
2022/01/25 01:00:14;;;;;;;19.40;13.20;;;4.30;99.90;;;;;;5033623;28;20176;-91
2022/01/25 01:02:40;;;;;;;16.33;12.63;;;4.30;99.90;;;;;;5033337;28;20204;-91
2022/01/25 01:05:07;;;;;;;15.43;12.10;;;4.30;99.90;;;;;;5033075;28;20268;-91
2022/01/25 01:07:32;;;;;;;17.73;12.93;;;4.30;99.90;;;;;;5037855;28;20180;-91
2022/01/25 01:09:59;;;;;;;18.70;12.63;;;4.30;99.90;;;;;;5043292;28;20183;-92
2022/01/25 01:39:40;;;;;;;23.43;18.07;;;4.20;99.90;;;;;;5038327;28;20297;-91
2022/01/25 01:47:44;;;;;;;21.10;18.07;;;4.20;99.90;;;;;;5038202;28;20173;-91
2022/01/25 01:50:15;;;;;;;26.13;17.83;;;4.20;99.90;;;;;;5036714;28;20261;-91
2022/01/25 01:52:41;;;;;;;19.67;16.83;;;4.20;99.90;;;;;;5037763;28;20530;-91
2022/01/25 01:55:08;;;;;;;19.63;17.50;;;4.20;99.90;;;;;;5036386;28;20183;-91
2022/01/25 01:57:34;;;;;;;21.70;17.20;;;4.20;99.90;;;;;;5036296;28;20592;-91
2022/01/25 02:00:00;;;;;;;22.17;17.20;;;4.10;99.90;;;;;;5037798;28;20172;-91
2022/01/25 02:02:25;;;;;;;22.23;17.50;;;4.30;99.90;;;;;;5036280;28;20218;-91
2022/01/25 02:04:51;;;;;;;24.50;18.23;;;4.10;99.90;;;;;;5036605;28;20194;-91
2022/01/25 02:07:17;;;;;;;24.37;18.00;;;4.20;99.90;;;;;;5037957;28;20191;-91
2022/01/25 02:09:42;;;;;;;23.03;17.87;;;4.10;99.90;;;;;;5037492;28;20210;-91
2022/01/25 02:12:08;;;;;;;24.37;16.53;;;4.10;99.90;;;;;;5035967;28;20215;-91
2022/01/25 02:14:36;;;;;;;18.40;16.40;;;4.20;99.90;;;;;;5035958;28;20184;-91
2022/01/25 02:17:12;;;;;;;24.33;17.53;;;4.20;99.90;;;;;;5035746;28;20188;-91
2022/01/25 02:22:29;;;;;;;18.37;15.43;;;4.20;99.90;;;;;;5037483;28;20211;-91
2022/01/25 02:24:55;;;;;;;19.93;15.37;;;4.10;99.90;;;;;;5036078;28;20172;-91
2022/01/25 02:27:20;;;;;;;20.60;15.60;;;4.20;99.90;;;;;;5035712;28;20180;-91
2022/01/25 02:29:46;;;;;;;18.60;15.67;;;4.20;99.90;;;;;;5037001;28;20207;-91
2022/01/25 02:32:12;;;;;;;24.30;16.03;;;4.10;99.90;;;;;;5036848;28;20204;-91
2022/01/25 02:34:38;;;;;;;20.60;16.47;;;4.20;99.90;;;;;;5035639;28;20192;-91
2022/01/25 02:37:06;;;;;;;21.27;17.30;;;4.10;99.90;;;;;;5036684;28;20179;-91
2022/01/25 02:39:33;;;;;;;20.97;17.17;;;4.10;99.90;;;;;;5035317;28;20586;-91
2022/01/25 02:42:00;;;;;;;21.27;16.90;;;4.10;99.90;;;;;;5036370;28;20291;-91
2022/01/25 02:44:28;;;;;;;23.10;17.97;;;4.10;99.90;;;;;;5036562;28;20180;-91
2022/01/25 02:49:28;;;;;;;23.60;18.53;;;4.10;99.90;;;;;;5036513;28;20175;-91
2022/01/25 02:51:54;;;;;;;23.37;19.17;;;4.10;99.90;;;;;;5036347;28;20262;-91
2022/01/25 02:54:19;;;;;;;23.43;18.40;;;4.10;99.90;;;;;;5037298;28;20176;-91
2022/01/25 02:56:46;;;;;;;28.97;19.87;;;4.10;99.90;;;;;;5036231;28;20596;-91
2022/01/25 02:59:15;;;;;;;24.27;19.17;;;4.10;99.90;;;;;;5034726;28;20276;-91
2022/01/25 03:01:41;;;;;;;24.73;18.93;;;4.10;99.90;;;;;;5034653;28;20187;-91
2022/01/25 03:04:08;;;;;;;23.37;18.50;;;4.10;99.90;;;;;;5034527;28;20747;-91
2022/01/25 03:06:34;;;;;;;22.33;18.50;;;4.10;99.90;;;;;;5043169;28;20175;-91
2022/01/25 03:09:01;;;;;;;25.13;18.17;;;4.10;99.90;;;;;;5047669;28;20192;-91
2022/01/25 03:11:27;;;;;;;23.77;17.57;;;4.10;99.90;;;;;;5034840;28;20204;-91
2022/01/25 03:13:56;;;;;;;21.33;18.00;;;4.10;99.90;;;;;;5034711;28;20596;-91
2022/01/25 03:16:32;;;;;;;24.33;17.90;;;4.10;99.90;;;;;;5034638;28;20654;-91
2022/01/25 03:19:01;;;;;;;23.47;17.37;;;4.10;99.90;;;;;;5034784;28;20182;-91
2022/01/25 03:23:53;;;;;;;25.20;19.03;;;4.10;99.90;;;;;;5035898;28;20207;-91
2022/01/25 03:26:19;;;;;;;21.27;16.90;;;4.10;99.90;;;;;;5034676;28;20594;-91
2022/01/25 03:28:45;;;;;;;22.90;18.60;;;4.10;99.90;;;;;;5035308;28;20180;-91
2022/01/25 03:31:11;;;;;;;23.03;18.13;;;4.10;99.90;;;;;;5035720;28;20208;-91
2022/01/25 03:33:38;;;;;;;28.43;18.43;;;4.10;99.90;;;;;;5034118;28;20707;-91
2022/01/25 03:36:05;;;;;;;24.07;18.47;;;4.10;99.90;;;;;;5035319;28;20180;-91
2022/01/25 03:38:31;;;;;;;25.17;19.27;;;4.10;99.90;;;;;;5033976;28;20183;-91
2022/01/25 03:40:56;;;;;;;24.57;18.47;;;4.10;99.90;;;;;;5034131;28;20191;-91
2022/01/25 03:43:22;;;;;;;23.07;18.07;;;4.10;99.90;;;;;;5033740;28;20615;-91
2022/01/25 03:46:01;;;;;;;25.40;17.87;;;4.10;99.90;;;;;;5033800;28;20179;-91
2022/01/25 03:50:52;;;;;;;19.30;13.87;;;4.10;99.90;;;;;;5035098;28;20202;-91
2022/01/25 03:53:20;;;;;;;21.47;16.20;;;4.10;99.90;;;;;;5034631;28;20196;-91
2022/01/25 03:55:47;;;;;;;20.20;16.33;;;4.10;99.90;;;;;;5034862;28;20183;-91
2022/01/25 03:58:13;;;;;;;22.40;16.70;;;4.00;99.90;;;;;;5034426;28;20626;-91
2022/01/25 04:00:40;;;;;;;26.83;18.23;;;4.10;99.90;;;;;;5033407;28;20191;-91
2022/01/25 04:03:13;;;;;;;24.00;18.30;;;4.00;99.90;;;;;;5033207;28;20258;-91
2022/01/25 04:08:07;;;;;;;23.43;17.97;;;4.00;99.90;;;;;;5035164;28;20233;-91
2022/01/25 04:10:32;;;;;;;24.40;17.70;;;3.90;99.90;;;;;;5034610;28;20287;-92
2022/01/25 04:12:58;;;;;;;22.27;17.13;;;4.00;99.90;;;;;;5033387;28;20196;-91
2022/01/25 04:15:24;;;;;;;22.97;17.73;;;4.00;99.90;;;;;;5033518;28;20183;-91
2022/01/25 04:17:58;;;;;;;24.07;17.70;;;3.90;99.90;;;;;;5033701;28;20598;-91
2022/01/25 04:20:29;;;;;;;27.20;18.90;;;4.00;99.90;;;;;;5033834;28;20172;-91
2022/01/25 04:25:39;;;;;;;24.33;17.67;;;4.00;99.90;;;;;;5035102;28;20210;-91
2022/01/25 04:28:04;;;;;;;25.57;18.80;;;4.00;99.90;;;;;;5035368;28;20180;-91
2022/01/25 04:30:30;;;;;;;22.20;17.13;;;4.00;99.90;;;;;;5034764;28;20208;-91
2022/01/25 04:33:05;;;;;;;26.67;17.60;;;4.00;99.90;;;;;;5033469;28;20681;-91
2022/01/25 04:49:07;;;;;;;21.00;17.73;;;3.90;99.90;;;;;;5035121;28;20673;-92
2022/01/25 04:51:45;;;;;;;23.33;17.77;;;3.90;99.90;;;;;;5032884;28;20203;-91
2022/01/25 04:59:36;;;;;;;21.83;16.47;;;3.90;99.90;;;;;;5035574;28;20168;-92
2022/01/25 05:02:08;;;;;;;22.10;17.83;;;3.90;99.90;;;;;;5052531;28;20200;-91
2022/01/25 05:04:40;;;;;;;23.30;16.23;;;3.90;99.90;;;;;;5034508;28;20692;-91
2022/01/25 05:09:55;;;;;;;20.07;15.77;;;3.90;99.90;;;;;;5025174;28;20199;-91
2022/01/25 05:12:33;;;;;;;22.90;17.53;;;3.90;99.90;;;;;;5034114;28;20646;-91
2022/01/25 05:15:06;;;;;;;17.50;14.23;;;3.90;99.90;;;;;;5033363;28;20169;-91
2022/01/25 05:17:42;;;;;;;17.83;15.27;;;3.90;99.90;;;;;;5034095;28;20164;-91
2022/01/25 05:22:52;;;;;;;20.80;14.60;;;3.90;99.90;;;;;;5034994;28;20614;-91
2022/01/25 05:25:17;;;;;;;18.37;14.63;;;3.90;99.90;;;;;;5033873;28;20181;-91
2022/01/25 05:27:43;;;;;;;25.57;17.03;;;3.90;99.90;;;;;;5035106;28;20176;-91
2022/01/25 05:30:09;;;;;;;24.93;16.17;;;3.90;99.90;;;;;;5033860;28;20236;-91
2022/01/25 05:32:35;;;;;;;19.40;16.60;;;3.90;99.90;;;;;;5033958;28;20610;-92
2022/01/25 05:35:01;;;;;;;24.70;16.50;;;3.90;99.90;;;;;;5035625;28;20195;-91
2022/01/25 05:37:27;;;;;;;21.60;16.90;;;3.90;99.90;;;;;;5033419;28;20172;-91
2022/01/25 05:39:53;;;;;;;28.33;18.50;;;3.90;99.90;;;;;;5034275;28;20589;-91
2022/01/25 05:47:24;;;;;;;23.40;16.77;;;3.90;99.90;;;;;;5035434;28;20183;-92
2022/01/25 05:49:50;;;;;;;24.47;16.27;;;3.80;99.90;;;;;;5034852;28;20161;-91
2022/01/25 05:52:16;;;;;;;23.90;17.77;;;3.90;99.90;;;;;;5035676;28;20208;-91
2022/01/25 05:54:41;;;;;;;20.70;16.60;;;3.80;99.90;;;;;;5039218;28;20172;-91
2022/01/25 05:57:07;;;;;;;25.03;17.57;;;3.90;99.90;;;;;;5041982;28;20638;-93
2022/01/25 05:59:33;;;;;;;27.30;18.07;;;3.90;99.90;;;;;;5042794;28;20198;-94
2022/01/25 06:01:58;;;;;;;24.07;17.43;;;3.80;99.90;;;;;;5042972;28;20188;-94
2022/01/25 06:04:24;;;;;;;22.50;17.40;;;4.00;99.90;;;;;;5039280;28;20273;-93
2022/01/25 06:06:52;;;;;;;21.97;17.47;;;3.80;99.90;;;;;;5039478;28;20206;-94
2022/01/25 06:09:18;;;;;;;26.50;19.40;;;3.80;99.90;;;;;;5041654;28;20649;-93
2022/01/25 06:11:43;;;;;;;22.13;16.73;;;3.90;99.90;;;;;;5047799;28;20224;-94
2022/01/25 06:14:09;;;;;;;24.13;18.07;;;3.80;99.90;;;;;;5043477;28;20179;-94
2022/01/25 06:16:35;;;;;;;22.77;17.80;;;3.80;99.90;;;;;;5041956;28;20176;-94
2022/01/25 06:19:01;;;;;;;23.63;16.97;;;3.90;99.90;;;;;;5043671;28;20230;-94
2022/01/25 06:21:27;;;;;;;26.33;19.03;;;3.80;99.90;;;;;;5040620;28;20203;-94
2022/01/25 06:23:54;;;;;;;21.30;16.83;;;3.80;99.90;;;;;;5046894;28;20184;-93
2022/01/25 06:26:20;;;;;;;26.10;18.40;;;3.80;99.90;;;;;;5040721;28;20188;-93
2022/01/25 06:28:45;;;;;;;24.63;18.17;;;3.70;99.90;;;;;;5038979;28;20680;-93
2022/01/25 06:31:11;;;;;;;27.43;17.33;;;3.80;99.90;;;;;;5038418;28;20200;-94
2022/01/25 06:33:41;;;;;;;24.40;17.33;;;3.80;99.90;;;;;;5045742;28;20200;-93
2022/01/25 06:36:06;;;;;;;25.83;18.73;;;3.80;99.90;;;;;;5044637;28;20591;-93
2022/01/25 06:38:33;;;;;;;25.40;18.57;;;3.80;99.90;;;;;;5042682;28;20161;-94
2022/01/25 06:40:58;;;;;;;22.07;17.13;;;3.80;99.90;;;;;;5047633;28;20560;-93
2022/01/25 06:43:24;;;;;;;22.20;17.30;;;3.80;99.90;;;;;;5049878;28;20204;-93
2022/01/25 06:45:56;;;;;;;24.53;18.63;;;3.80;99.90;;;;;;5039637;28;20180;-92
2022/01/25 06:48:23;;;;;;;25.57;18.07;;;3.80;99.90;;;;;;5047032;28;20182;-92
2022/01/25 06:50:48;;;;;;;22.60;17.33;;;3.80;99.90;;;;;;5046817;28;20247;-94
2022/01/25 06:53:14;;;;;;;21.33;16.57;;;3.80;99.90;;;;;;5044268;28;20204;-93
2022/01/25 06:55:40;;;;;;;20.87;16.43;;;3.80;99.90;;;;;;5039475;28;20209;-93
2022/01/25 06:58:07;;;;;;;20.90;16.10;;;3.80;99.90;;;;;;5052395;28;20177;-93
2022/01/25 07:00:32;;;;;;;21.97;16.43;;;3.80;99.90;;;;;;5043143;28;20176;-93
2022/01/25 07:02:58;;;;;;;21.37;15.83;;;3.80;99.90;;;;;;5039164;28;20291;-93
2022/01/25 07:05:23;;;;;;;22.67;15.40;;;3.80;99.90;;;;;;5037401;28;20282;-93
2022/01/25 07:07:50;;;;;;;24.23;17.00;;;3.80;99.90;;;;;;5038136;28;20195;-93
2022/01/25 07:10:15;;;;;;;25.90;17.30;;;3.80;99.90;;;;;;5039269;28;20184;-92
2022/01/25 07:12:41;;;;;;;25.20;16.60;;;3.80;99.90;;;;;;5038371;28;20673;-93
2022/01/25 07:15:07;;;;;;;25.43;17.10;;;3.80;99.90;;;;;;5037151;28;20665;-93
2022/01/25 07:17:33;;;;;;;27.83;18.43;;;3.80;99.90;;;;;;5037753;28;20196;-93
2022/01/25 07:19:59;;;;;;;26.53;18.27;;;3.80;99.90;;;;;;5036960;28;20193;-92
2022/01/25 07:22:24;;;;;;;24.37;18.20;;;3.80;99.90;;;;;;5036521;28;20200;-93
2022/01/25 07:24:50;;;;;;;26.93;18.43;;;3.80;99.90;;;;;;5036608;28;20180;-93
2022/01/25 07:27:15;;;;;;;31.20;18.13;;;3.70;99.90;;;;;;5036942;28;20586;-93
2022/01/25 07:29:41;;;;;;;25.03;17.73;;;3.80;99.90;;;;;;5035588;28;20191;-93
2022/01/25 07:32:07;;;;;;;24.73;17.10;;;3.80;99.90;;;;;;5035958;28;20239;-93
2022/01/25 07:34:32;;;;;;;26.43;19.00;;;3.70;99.90;;;;;;5036222;28;20661;-92
2022/01/25 07:36:58;;;;;;;30.40;19.00;;;3.80;99.90;;;;;;5037930;28;20224;-93
2022/01/25 07:39:26;;;;;;;30.30;19.83;;;3.80;99.90;;;;;;5037306;28;20176;-92
2022/01/25 07:41:57;;;;;;;27.90;19.37;;;3.80;99.90;;;;;;5039091;28;20248;-93
2022/01/25 07:44:27;;;;;;;31.07;18.53;;;3.80;99.90;;;;;;5014324;22;20241;-80
2022/01/25 07:46:52;;;;;;;30.17;19.47;;;3.70;99.90;;;;;;4958670;28;20175;-80
2022/01/25 07:49:18;;;;;;;29.87;19.77;;;3.70;99.90;;;;;;4957964;28;20182;-80
2022/01/25 07:51:44;;;;;;;29.60;18.93;;;3.80;99.90;;;;;;4953569;28;20256;-83
2022/01/25 07:54:09;;;;;;;31.00;21.47;;;3.80;99.90;;;;;;4954086;28;20695;-83
2022/01/25 07:56:35;;;;;;;28.07;19.27;;;3.70;99.90;;;;;;4953939;28;20183;-80
2022/01/25 07:59:00;;;;;;;28.20;20.23;;;3.70;99.90;;;;;;4953933;28;20179;-80
2022/01/25 08:01:26;;;;;;;29.07;20.40;;;3.80;99.90;;;;;;4955167;28;20179;-80
2022/01/25 08:03:52;;;;;;;27.43;18.33;;;3.80;99.90;;;;;;4954669;28;20187;-80
2022/01/25 08:06:18;;;;;;;23.23;18.67;;;3.80;99.90;;;;;;4956218;28;20220;-80
2022/01/25 08:08:44;;;;;;;33.73;20.00;;;3.70;99.90;;;;;;4955393;28;20182;-79
2022/01/25 08:11:10;;;;;;;28.33;19.97;;;3.70;99.90;;;;;;4953024;28;20203;-80
2022/01/25 08:13:38;;;;;;;28.40;19.07;;;3.80;99.90;;;;;;4952725;29;20190;-80
2022/01/25 08:16:04;;;;;;;27.73;19.93;;;3.80;99.90;;;;;;4952068;28;20252;-79
2022/01/25 08:18:29;;;;;;;28.40;19.47;;;3.80;99.90;;;;;;4952628;29;20175;-80
2022/01/25 08:20:55;;;;;;;28.97;19.97;;;3.70;99.90;;;;;;4954862;28;20190;-80
2022/01/25 08:23:20;;;;;;;27.67;19.70;;;3.80;99.90;;;;;;4955479;28;20183;-80
2022/01/25 08:25:46;;;;;;;27.97;19.83;;;3.80;99.90;;;;;;4954469;28;20199;-80
2022/01/25 08:28:11;;;;;;;29.87;18.50;;;3.80;99.90;;;;;;4952773;28;20190;-80
2022/01/25 08:30:37;;;;;;;26.00;19.73;;;3.70;99.90;;;;;;4952674;28;20290;-79
2022/01/25 08:33:03;;;;;;;30.03;20.33;;;3.80;99.90;;;;;;4955745;28;20227;-80
2022/01/25 08:35:29;;;;;;;33.80;19.90;;;3.80;99.90;;;;;;4955042;28;20230;-80
2022/01/25 08:37:54;;;;;;;29.17;19.87;;;3.80;99.90;;;;;;4954342;29;20225;-80
2022/01/25 08:40:20;;;;;;;26.47;19.13;;;3.80;99.90;;;;;;4954476;29;20179;-80
2022/01/25 08:42:45;;;;;;;28.57;19.27;;;3.80;99.90;;;;;;4955417;29;20183;-80
2022/01/25 08:45:12;;;;;;;31.17;20.93;;;3.80;99.90;;;;;;4955370;28;20221;-80
2022/01/25 08:47:37;;;;;;;32.07;21.83;;;3.80;99.90;;;;;;4953850;28;20187;-80
2022/01/25 08:50:08;;;;;;;28.30;19.70;;;3.80;99.90;;;;;;4954179;28;20252;-80
2022/01/25 08:52:34;;;;;;;37.43;25.60;;;3.80;99.90;;;;;;4955915;28;20158;-80
2022/01/25 08:55:00;;;;;;;39.33;25.70;;;3.80;99.90;;;;;;4954206;28;20199;-80
2022/01/25 08:57:26;;;;;;;30.73;21.37;;;3.90;99.90;;;;;;4955082;28;20170;-81
2022/01/25 08:59:51;;;;;;;31.73;19.40;;;3.80;99.90;;;;;;4954612;29;20249;-83
2022/01/25 09:02:17;;;;;;;31.97;20.77;;;3.90;99.90;;;;;;4955877;28;20648;-83
2022/01/25 09:04:42;;;;;;;35.73;20.80;;;3.90;99.90;;;;;;4954471;28;20234;-81
2022/01/25 09:07:08;;;;;;;29.37;19.80;;;3.80;99.90;;;;;;4957097;29;20187;-84
2022/01/25 09:09:34;;;;;;;31.77;20.27;;;3.90;99.90;;;;;;4954599;28;20190;-79
2022/01/25 09:11:59;;;;;;;33.93;21.20;;;4.10;99.90;;;;;;4956565;28;20203;-81
2022/01/25 09:14:25;;;;;;;28.73;21.13;;;3.90;99.90;;;;;;4955878;28;20199;-80
2022/01/25 09:16:50;;;;;;;30.67;20.33;;;3.90;99.90;;;;;;4954882;28;20183;-80
2022/01/25 09:19:16;;;;;;;32.87;19.53;;;3.90;99.90;;;;;;4956010;28;20264;-80
2022/01/25 09:21:42;;;;;;;35.07;19.10;;;3.90;99.90;;;;;;4953726;28;20179;-80
2022/01/25 09:24:09;;;;;;;31.53;20.40;;;4.00;99.90;;;;;;4954709;28;20258;-80
2022/01/25 09:26:35;;;;;;;32.93;21.57;;;3.90;99.90;;;;;;4952675;28;20244;-80
2022/01/25 09:29:01;;;;;;;34.63;21.23;;;4.00;99.90;;;;;;4954644;28;20183;-80
2022/01/25 09:31:27;;;;;;;30.27;20.53;;;4.00;99.90;;;;;;4955312;28;20199;-81
2022/01/25 09:33:53;;;;;;;33.07;22.13;;;4.00;99.90;;;;;;4956931;28;20186;-80
2022/01/25 09:36:19;;;;;;;34.93;22.27;;;4.00;99.90;;;;;;4958281;29;20184;-82
2022/01/25 09:38:45;;;;;;;31.13;20.53;;;4.00;99.90;;;;;;4958287;28;20182;-82
2022/01/25 09:41:11;;;;;;;35.40;21.83;;;4.00;99.90;;;;;;4958571;28;20191;-82
2022/01/25 09:43:36;;;;;;;35.67;21.53;;;4.00;99.90;;;;;;4959070;28;20198;-82
2022/01/25 09:46:02;;;;;;;33.17;20.10;;;4.10;99.90;;;;;;4960494;28;20657;-83
2022/01/25 09:48:27;;;;;;;32.17;21.53;;;4.00;99.90;;;;;;4959378;28;20228;-82
2022/01/25 09:50:56;;;;;;;31.97;21.47;;;4.00;99.90;;;;;;4959727;28;20627;-83
2022/01/25 09:53:22;;;;;;;37.83;21.57;;;4.00;99.90;;;;;;4957841;28;20641;-82
2022/01/25 09:55:47;;;;;;;34.10;22.47;;;4.00;99.90;;;;;;4953805;28;20224;-82
2022/01/25 09:58:13;;;;;;;34.80;20.37;;;4.00;99.90;;;;;;4953613;28;20574;-83
2022/01/25 10:00:41;;;;;;;36.23;21.50;;;4.10;99.90;;;;;;4954160;28;20183;-83
2022/01/25 10:03:19;;;;;;;40.40;22.37;;;4.10;99.90;;;;;;4953830;28;20220;-82
2022/01/25 10:05:48;;;;;;;39.83;23.53;;;4.10;99.90;;;;;;4956063;28;20281;-82
2022/01/25 10:08:17;;;;;;;34.67;21.97;;;4.10;99.90;;;;;;4955925;28;20181;-83
2022/01/25 10:10:55;;;;;;;36.27;22.13;;;4.10;99.90;;;;;;4958199;28;20206;-83
2022/01/25 10:13:29;;;;;;;33.33;21.73;;;4.20;99.90;;;;;;4957745;29;20587;-83
2022/01/25 10:16:10;;;;;;;32.80;22.33;;;4.10;99.90;;;;;;4956853;28;20210;-82
2022/01/25 10:18:50;;;;;;;38.13;22.83;;;4.10;99.90;;;;;;4957584;29;20175;-83
2022/01/25 10:21:23;;;;;;;37.10;22.73;;;4.10;99.90;;;;;;4955015;29;20229;-82
2022/01/25 10:24:07;;;;;;;33.87;22.43;;;4.20;99.90;;;;;;4957306;28;20175;-82
2022/01/25 10:26:35;;;;;;;42.30;24.47;;;4.20;99.90;;;;;;4957775;28;20185;-82
2022/01/25 10:29:02;;;;;;;34.93;21.60;;;4.10;99.90;;;;;;4958800;28;20183;-82
2022/01/25 10:31:45;;;;;;;38.70;22.93;;;4.20;99.90;;;;;;4957009;28;20203;-82
2022/01/25 10:34:15;;;;;;;35.73;21.90;;;4.20;99.90;;;;;;4954669;28;20681;-83
2022/01/25 10:36:48;;;;;;;36.43;22.60;;;4.20;99.90;;;;;;4956487;28;20179;-82
2022/01/25 10:39:39;;;;;;;32.80;20.77;;;4.20;99.90;;;;;;4957274;28;20172;-82
2022/01/25 10:42:28;;;;;;;38.50;21.90;;;4.20;99.90;;;;;;4957832;28;20212;-82
2022/01/25 10:45:09;;;;;;;41.43;23.40;;;4.20;99.90;;;;;;4958282;28;20223;-85
2022/01/25 10:47:46;;;;;;;41.67;22.87;;;4.20;99.90;;;;;;4959713;29;20250;-82
2022/01/25 10:50:17;;;;;;;38.90;22.33;;;4.20;99.90;;;;;;4961166;29;20167;-82
2022/01/25 10:52:44;;;;;;;39.50;24.00;;;4.20;99.90;;;;;;4954887;28;20725;-82
2022/01/25 10:55:11;;;;;;;36.47;22.17;;;4.30;99.90;;;;;;4954085;28;20206;-82
2022/01/25 10:57:37;;;;;;;37.83;23.57;;;4.20;99.90;;;;;;4953852;28;20672;-81
2022/01/25 11:00:09;;;;;;;35.40;23.07;;;4.20;99.90;;;;;;4954677;28;20587;-82
2022/01/25 11:02:36;;;;;;;39.73;23.50;;;4.30;99.90;;;;;;4954465;28;20321;-82
2022/01/25 11:05:07;;;;;;;36.93;23.00;;;4.30;99.90;;;;;;4953606;28;20555;-82
2022/01/25 11:07:37;;;;;;;38.43;24.10;;;4.30;99.90;;;;;;4954477;28;20183;-82
2022/01/25 11:10:03;;;;;;;38.43;22.77;;;4.30;99.90;;;;;;4955069;28;20183;-81
2022/01/25 11:12:36;;;;;;;39.17;22.43;;;4.30;99.90;;;;;;4955717;28;20214;-82
2022/01/25 11:15:03;;;;;;;37.63;23.27;;;4.30;99.90;;;;;;4955377;28;20199;-81
2022/01/25 11:17:31;;;;;;;36.03;22.93;;;4.30;99.90;;;;;;4956667;28;20186;-81
2022/01/25 11:19:59;;;;;;;40.60;23.80;;;4.40;99.90;;;;;;4955924;28;20174;-81
2022/01/25 11:22:26;;;;;;;44.23;28.27;;;4.40;99.90;;;;;;4954407;29;20183;-81
2022/01/25 11:24:55;;;;;;;46.47;30.60;;;4.40;99.90;;;;;;4956349;28;20210;-82
2022/01/25 11:27:23;;;;;;;49.07;29.10;;;4.40;99.90;;;;;;4955210;28;20186;-82
2022/01/25 11:29:51;;;;;;;93.33;54.30;;;4.40;99.90;;;;;;4954779;28;20175;-82
2022/01/25 11:32:23;;;;;;;49.93;31.53;;;4.40;99.90;;;;;;4955502;28;20227;-82
2022/01/25 11:34:50;;;;;;;37.70;24.40;;;4.40;99.90;;;;;;4955340;28;20187;-82
2022/01/25 11:37:16;;;;;;;36.50;23.60;;;4.40;99.90;;;;;;4955643;28;20180;-82
2022/01/25 11:39:45;;;;;;;43.70;28.73;;;4.40;99.90;;;;;;4954052;28;20180;-82
2022/01/25 11:42:14;;;;;;;40.03;24.30;;;4.40;99.90;;;;;;4953923;28;20187;-82
2022/01/25 11:44:51;;;;;;;39.97;23.73;;;4.40;99.90;;;;;;4954607;28;20215;-82
2022/01/25 11:47:20;;;;;;;38.20;22.47;;;4.40;99.90;;;;;;4955755;29;20175;-82
2022/01/25 11:50:08;;;;;;;37.10;23.93;;;4.40;99.90;;;;;;4955288;28;20599;-82
2022/01/25 11:52:34;;;;;;;37.87;23.53;;;4.40;99.90;;;;;;4955057;29;20171;-81
2022/01/25 11:55:28;;;;;;;34.37;22.47;;;4.40;99.90;;;;;;4954661;28;20689;-82
2022/01/25 11:58:16;;;;;;;37.00;23.57;;;4.40;99.90;;;;;;4957384;28;20163;-82
2022/01/25 12:00:49;;;;;;;35.23;22.13;;;4.50;99.90;;;;;;4956973;29;20178;-82
2022/01/25 12:03:31;;;;;;;36.83;22.87;;;4.40;99.90;;;;;;4956749;28;20195;-82
2022/01/25 12:06:21;;;;;;;36.47;22.70;;;4.40;99.90;;;;;;4955347;28;20211;-82
2022/01/25 12:14:16;;;;;;;37.57;23.70;;;4.40;99.90;;;;;;4956271;28;20164;-82
2022/01/25 12:16:44;;;;;;;38.07;23.83;;;4.40;99.90;;;;;;4954495;29;20209;-81
2022/01/25 12:19:35;;;;;;;39.00;24.13;;;4.50;99.90;;;;;;4954112;28;20187;-82
2022/01/25 12:22:11;;;;;;;41.33;24.97;;;4.40;99.90;;;;;;4957726;28;20199;-82
2022/01/25 12:24:43;;;;;;;39.97;24.80;;;4.40;99.90;;;;;;4954585;28;20198;-82
2022/01/25 12:27:27;;;;;;;39.90;23.83;;;4.50;99.90;;;;;;4955571;28;20182;-82
2022/01/25 12:30:12;;;;;;;40.70;24.43;;;4.50;99.90;;;;;;4954280;29;20172;-82
2022/01/25 12:33:03;;;;;;;40.53;24.67;;;4.40;99.90;;;;;;4954993;29;20217;-81
2022/01/25 12:35:54;;;;;;;38.53;24.03;;;4.50;99.90;;;;;;4983985;28;20597;-83
2022/01/25 12:38:21;;;;;;;41.23;24.37;;;4.50;99.90;;;;;;4955226;29;20191;-82
2022/01/25 12:40:59;;;;;;;41.57;25.00;;;4.50;99.90;;;;;;4956216;28;20194;-82
2022/01/25 12:43:33;;;;;;;39.40;24.20;;;4.50;99.90;;;;;;4955199;28;20213;-82
2022/01/25 12:46:09;;;;;;;43.13;25.43;;;4.50;99.90;;;;;;4956341;28;20208;-82
2022/01/25 12:48:42;;;;;;;37.47;23.90;;;4.50;99.90;;;;;;4953914;29;20170;-81
2022/01/25 12:51:11;;;;;;;45.67;24.13;;;4.50;99.90;;;;;;4956400;28;20206;-81
2022/01/25 12:53:40;;;;;;;43.50;25.03;;;4.50;99.90;;;;;;4954046;28;20198;-81
2022/01/25 12:56:10;;;;;;;42.13;24.47;;;4.50;99.90;;;;;;4955000;28;20337;-82
2022/01/25 12:58:37;;;;;;;36.17;22.50;;;4.50;99.90;;;;;;4955410;29;20213;-82
2022/01/25 13:01:13;;;;;;;32.33;21.90;;;4.50;99.90;;;;;;4954263;28;20190;-82
2022/01/25 13:03:53;;;;;;;47.03;25.77;;;4.50;99.90;;;;;;4957287;28;20182;-82
2022/01/25 13:06:22;;;;;;;39.00;22.83;;;4.60;99.90;;;;;;4956524;28;20182;-82
2022/01/25 13:08:56;;;;;;;36.03;23.27;;;4.60;99.90;;;;;;4956671;28;20187;-83
2022/01/25 13:11:59;;;;;;;38.07;24.87;;;4.60;99.90;;;;;;4957637;28;20190;-82
2022/01/25 13:17:07;;;;;;;39.97;24.27;;;4.60;99.90;;;;;;4959156;28;20166;-82
2022/01/25 13:19:42;;;;;;;38.87;25.23;;;4.70;99.90;;;;;;4958396;28;20186;-82
2022/01/25 13:22:15;;;;;;;40.40;23.67;;;4.60;99.90;;;;;;4956843;28;20660;-82
2022/01/25 13:24:49;;;;;;;44.37;24.60;;;4.70;99.90;;;;;;4957211;28;20695;-82
2022/01/25 13:27:19;;;;;;;41.73;25.27;;;4.60;99.90;;;;;;4958016;29;20177;-82
2022/01/25 13:32:40;;;;;;;41.23;23.17;;;4.80;99.90;;;;;;4958904;29;20245;-83
2022/01/25 13:35:15;;;;;;;42.43;24.37;;;4.60;99.90;;;;;;4958696;28;20213;-82
2022/01/25 13:37:42;;;;;;;38.13;24.37;;;4.70;99.90;;;;;;4959625;29;20242;-82
2022/01/25 13:40:09;;;;;;;36.10;23.43;;;4.70;99.90;;;;;;4957270;28;20189;-82
2022/01/25 13:42:43;;;;;;;44.10;24.53;;;4.70;99.90;;;;;;4958773;28;20179;-82
2022/01/25 13:48:06;;;;;;;43.47;23.27;;;4.60;99.90;;;;;;4960957;29;20209;-82
2022/01/25 13:50:34;;;;;;;41.40;23.87;;;4.60;99.90;;;;;;4959896;29;20202;-82
2022/01/25 13:53:00;;;;;;;39.60;23.20;;;4.60;99.90;;;;;;4959245;28;20259;-81
2022/01/25 13:55:26;;;;;;;39.70;23.70;;;4.60;99.90;;;;;;4957136;28;20264;-81
2022/01/25 13:57:52;;;;;;;36.20;23.03;;;4.60;99.90;;;;;;4956632;28;20669;-82
2022/01/25 14:00:20;;;;;;;37.33;22.77;;;4.60;99.90;;;;;;4956700;28;20167;-81
2022/01/25 14:02:55;;;;;;;40.40;23.47;;;4.60;99.90;;;;;;4955688;28;20198;-82
2022/01/25 14:05:21;;;;;;;39.80;22.57;;;4.60;99.90;;;;;;4957350;28;20199;-82
2022/01/25 14:07:52;;;;;;;37.17;21.57;;;4.60;99.90;;;;;;4957837;29;20175;-82
2022/01/25 14:10:23;;;;;;;41.47;24.17;;;4.60;99.90;;;;;;4967777;29;20170;-81
2022/01/25 14:24:05;;;;;;;36.87;21.50;;;4.50;99.90;;;;;;4972245;28;20189;-82
2022/01/25 14:26:31;;;;;;;37.10;22.47;;;4.50;99.90;;;;;;4967963;29;20170;-83
2022/01/25 14:29:07;;;;;;;36.03;22.83;;;4.60;99.90;;;;;;4961506;28;20561;-82
2022/01/25 14:31:40;;;;;;;39.90;23.00;;;4.50;99.90;;;;;;4959259;29;20191;-83
2022/01/25 14:34:08;;;;;;;36.00;22.60;;;4.50;99.90;;;;;;4959947;28;20526;-82
2022/01/25 14:36:34;;;;;;;35.90;21.50;;;4.50;99.90;;;;;;4959584;29;20205;-82
2022/01/25 14:39:02;;;;;;;37.53;23.37;;;4.50;99.90;;;;;;4961587;29;20179;-82
2022/01/25 14:41:32;;;;;;;34.63;22.63;;;4.50;99.90;;;;;;4964942;28;20540;-81
2022/01/25 14:44:05;;;;;;;39.03;23.23;;;4.50;99.90;;;;;;4965280;28;20205;-80
2022/01/25 14:46:40;;;;;;;39.87;23.83;;;4.50;99.90;;;;;;4961049;28;20170;-80
2022/01/25 14:49:22;;;;;;;37.57;21.47;;;4.50;99.90;;;;;;4958257;29;20270;-80
2022/01/25 14:51:58;;;;;;;38.30;22.77;;;4.50;99.90;;;;;;4957212;29;20264;-80